sensor_id;sensor_type;location;lat;lon;timestamp;P1;P2;P0
40371;PMS5003;28564;53.346;-6.554;2023-04-10T00:00:33;1;0;
40371;PMS5003;28564;53.346;-6.554;2023-04-10T00:03:01;4;1;
40371;PMS5003;28564;53.346;-6.554;2023-04-10T00:05:28;2;1;
40371;PMS5003;28564;53.346;-6.554;2023-04-10T00:07:55;1;1;
40371;PMS5003;28564;53.346;-6.554;2023-04-10T00:10:22;1;1;
40371;PMS5003;28564;53.346;-6.554;2023-04-10T00:12:50;0;0;
40371;PMS5003;28564;53.346;-6.554;2023-04-10T00:15:17;0;0;
40371;PMS5003;28564;53.346;-6.554;2023-04-10T00:17:44;1;1;
40371;PMS5003;28564;53.346;-6.554;2023-04-10T00:20:11;0;0;
40371;PMS5003;28564;53.346;-6.554;2023-04-10T00:22:39;2;1;
40371;PMS5003;28564;53.346;-6.554;2023-04-10T00:25:06;2;0;
40371;PMS5003;28564;53.346;-6.554;2023-04-10T00:27:34;1;1;
40371;PMS5003;28564;53.346;-6.554;2023-04-10T00:30:01;1;0;
40371;PMS5003;28564;53.346;-6.554;2023-04-10T00:32:33;1;1;
40371;PMS5003;28564;53.346;-6.554;2023-04-10T00:35:06;1;1;
40371;PMS5003;28564;53.346;-6.554;2023-04-10T00:37:34;1;1;
40371;PMS5003;28564;53.346;-6.554;2023-04-10T00:40:01;4;1;
40371;PMS5003;28564;53.346;-6.554;2023-04-10T00:42:28;1;1;
40371;PMS5003;28564;53.346;-6.554;2023-04-10T00:44:56;3;1;
40371;PMS5003;28564;53.346;-6.554;2023-04-10T00:47:23;2;1;
40371;PMS5003;28564;53.346;-6.554;2023-04-10T00:49:51;1;0;
40371;PMS5003;28564;53.346;-6.554;2023-04-10T00:52:19;2;1;
40371;PMS5003;28564;53.346;-6.554;2023-04-10T00:54:46;0;0;
40371;PMS5003;28564;53.346;-6.554;2023-04-10T00:57:13;1;1;
40371;PMS5003;28564;53.346;-6.554;2023-04-10T00:59:41;3;2;
40371;PMS5003;28564;53.346;-6.554;2023-04-10T01:02:08;0;0;
40371;PMS5003;28564;53.346;-6.554;2023-04-10T01:04:36;1;1;
40371;PMS5003;28564;53.346;-6.554;2023-04-10T01:07:06;0;0;
40371;PMS5003;28564;53.346;-6.554;2023-04-10T01:09:43;1;1;
40371;PMS5003;28564;53.346;-6.554;2023-04-10T01:12:24;1;0;
40371;PMS5003;28564;53.346;-6.554;2023-04-10T01:15:03;1;1;
40371;PMS5003;28564;53.346;-6.554;2023-04-10T01:17:34;1;1;
40371;PMS5003;28564;53.346;-6.554;2023-04-10T01:20:08;4;2;
40371;PMS5003;28564;53.346;-6.554;2023-04-10T01:22:44;1;1;
40371;PMS5003;28564;53.346;-6.554;2023-04-10T01:25:32;2;1;
40371;PMS5003;28564;53.346;-6.554;2023-04-10T01:28:08;1;1;
40371;PMS5003;28564;53.346;-6.554;2023-04-10T01:30:44;2;1;
40371;PMS5003;28564;53.346;-6.554;2023-04-10T01:33:14;2;0;
40371;PMS5003;28564;53.346;-6.554;2023-04-10T01:35:46;1;1;
40371;PMS5003;28564;53.346;-6.554;2023-04-10T01:38:18;1;1;
40371;PMS5003;28564;53.346;-6.554;2023-04-10T01:40:47;1;1;
40371;PMS5003;28564;53.346;-6.554;2023-04-10T01:43:19;0;0;
40371;PMS5003;28564;53.346;-6.554;2023-04-10T01:45:48;1;1;
40371;PMS5003;28564;53.346;-6.554;2023-04-10T01:48:18;2;1;
40371;PMS5003;28564;53.346;-6.554;2023-04-10T01:50:46;2;1;
40371;PMS5003;28564;53.346;-6.554;2023-04-10T01:53:14;1;1;
40371;PMS5003;28564;53.346;-6.554;2023-04-10T01:55:43;4;1;
40371;PMS5003;28564;53.346;-6.554;2023-04-10T01:58:11;2;1;
40371;PMS5003;28564;53.346;-6.554;2023-04-10T02:00:39;2;2;
40371;PMS5003;28564;53.346;-6.554;2023-04-10T02:03:08;4;1;
40371;PMS5003;28564;53.346;-6.554;2023-04-10T02:05:37;5;2;
40371;PMS5003;28564;53.346;-6.554;2023-04-10T02:08:17;2;2;
40371;PMS5003;28564;53.346;-6.554;2023-04-10T02:10:54;3;2;
40371;PMS5003;28564;53.346;-6.554;2023-04-10T02:13:27;2;2;
40371;PMS5003;28564;53.346;-6.554;2023-04-10T02:15:55;4;4;
40371;PMS5003;28564;53.346;-6.554;2023-04-10T02:18:30;4;1;
40371;PMS5003;28564;53.346;-6.554;2023-04-10T02:20:59;1;1;
40371;PMS5003;28564;53.346;-6.554;2023-04-10T02:23:26;2;2;
40371;PMS5003;28564;53.346;-6.554;2023-04-10T02:25:53;4;3;
40371;PMS5003;28564;53.346;-6.554;2023-04-10T02:28:20;5;1;
40371;PMS5003;28564;53.346;-6.554;2023-04-10T02:30:48;4;2;
40371;PMS5003;28564;53.346;-6.554;2023-04-10T02:33:15;4;2;
40371;PMS5003;28564;53.346;-6.554;2023-04-10T02:35:42;3;3;
40371;PMS5003;28564;53.346;-6.554;2023-04-10T02:38:09;3;2;
40371;PMS5003;28564;53.346;-6.554;2023-04-10T02:40:37;2;2;
40371;PMS5003;28564;53.346;-6.554;2023-04-10T02:43:04;2;2;
40371;PMS5003;28564;53.346;-6.554;2023-04-10T02:45:31;3;1;
40371;PMS5003;28564;53.346;-6.554;2023-04-10T02:47:58;3;2;
40371;PMS5003;28564;53.346;-6.554;2023-04-10T02:50:25;2;2;
40371;PMS5003;28564;53.346;-6.554;2023-04-10T02:52:53;6;3;
40371;PMS5003;28564;53.346;-6.554;2023-04-10T02:55:20;2;2;
40371;PMS5003;28564;53.346;-6.554;2023-04-10T02:57:47;4;3;
40371;PMS5003;28564;53.346;-6.554;2023-04-10T03:00:15;4;3;
40371;PMS5003;28564;53.346;-6.554;2023-04-10T03:02:43;4;1;
40371;PMS5003;28564;53.346;-6.554;2023-04-10T03:05:10;4;4;
40371;PMS5003;28564;53.346;-6.554;2023-04-10T03:07:37;4;2;
40371;PMS5003;28564;53.346;-6.554;2023-04-10T03:10:05;2;2;
40371;PMS5003;28564;53.346;-6.554;2023-04-10T03:12:32;5;3;
40371;PMS5003;28564;53.346;-6.554;2023-04-10T03:15:00;5;2;
40371;PMS5003;28564;53.346;-6.554;2023-04-10T03:17:27;4;3;
40371;PMS5003;28564;53.346;-6.554;2023-04-10T03:19:54;4;4;
40371;PMS5003;28564;53.346;-6.554;2023-04-10T03:22:22;5;2;
40371;PMS5003;28564;53.346;-6.554;2023-04-10T03:24:50;3;3;
40371;PMS5003;28564;53.346;-6.554;2023-04-10T03:27:17;5;3;
40371;PMS5003;28564;53.346;-6.554;2023-04-10T03:29:44;5;4;
40371;PMS5003;28564;53.346;-6.554;2023-04-10T03:32:11;3;3;
40371;PMS5003;28564;53.346;-6.554;2023-04-10T03:34:39;6;3;
40371;PMS5003;28564;53.346;-6.554;2023-04-10T03:37:06;4;3;
40371;PMS5003;28564;53.346;-6.554;2023-04-10T03:39:33;5;3;
40371;PMS5003;28564;53.346;-6.554;2023-04-10T03:42:00;6;5;
40371;PMS5003;28564;53.346;-6.554;2023-04-10T03:44:28;7;5;
40371;PMS5003;28564;53.346;-6.554;2023-04-10T03:46:55;8;4;
40371;PMS5003;28564;53.346;-6.554;2023-04-10T03:49:22;4;2;
40371;PMS5003;28564;53.346;-6.554;2023-04-10T03:51:50;3;2;
40371;PMS5003;28564;53.346;-6.554;2023-04-10T03:54:17;3;3;
40371;PMS5003;28564;53.346;-6.554;2023-04-10T03:56:44;3;3;
40371;PMS5003;28564;53.346;-6.554;2023-04-10T03:59:11;1;1;
40371;PMS5003;28564;53.346;-6.554;2023-04-10T04:01:38;3;3;
40371;PMS5003;28564;53.346;-6.554;2023-04-10T04:04:06;2;2;
40371;PMS5003;28564;53.346;-6.554;2023-04-10T04:06:33;2;2;
40371;PMS5003;28564;53.346;-6.554;2023-04-10T04:09:01;2;2;
40371;PMS5003;28564;53.346;-6.554;2023-04-10T04:11:28;2;2;
40371;PMS5003;28564;53.346;-6.554;2023-04-10T04:13:55;5;3;
40371;PMS5003;28564;53.346;-6.554;2023-04-10T04:16:22;7;3;
40371;PMS5003;28564;53.346;-6.554;2023-04-10T04:18:50;7;3;
40371;PMS5003;28564;53.346;-6.554;2023-04-10T04:21:17;3;2;
40371;PMS5003;28564;53.346;-6.554;2023-04-10T04:23:44;5;2;
40371;PMS5003;28564;53.346;-6.554;2023-04-10T04:26:11;4;4;
40371;PMS5003;28564;53.346;-6.554;2023-04-10T04:28:39;2;1;
40371;PMS5003;28564;53.346;-6.554;2023-04-10T04:31:06;1;1;
40371;PMS5003;28564;53.346;-6.554;2023-04-10T04:33:33;6;2;
40371;PMS5003;28564;53.346;-6.554;2023-04-10T04:36:01;3;2;
40371;PMS5003;28564;53.346;-6.554;2023-04-10T04:38:28;4;3;
40371;PMS5003;28564;53.346;-6.554;2023-04-10T04:40:55;4;1;
40371;PMS5003;28564;53.346;-6.554;2023-04-10T04:43:22;1;1;
40371;PMS5003;28564;53.346;-6.554;2023-04-10T04:45:50;5;2;
40371;PMS5003;28564;53.346;-6.554;2023-04-10T04:48:17;1;1;
40371;PMS5003;28564;53.346;-6.554;2023-04-10T04:50:44;3;1;
40371;PMS5003;28564;53.346;-6.554;2023-04-10T04:53:12;4;2;
40371;PMS5003;28564;53.346;-6.554;2023-04-10T04:55:39;4;2;
40371;PMS5003;28564;53.346;-6.554;2023-04-10T04:58:07;4;3;
40371;PMS5003;28564;53.346;-6.554;2023-04-10T05:00:34;2;2;
40371;PMS5003;28564;53.346;-6.554;2023-04-10T05:03:01;1;1;
40371;PMS5003;28564;53.346;-6.554;2023-04-10T05:05:29;2;2;
40371;PMS5003;28564;53.346;-6.554;2023-04-10T05:07:56;2;2;
40371;PMS5003;28564;53.346;-6.554;2023-04-10T05:10:23;4;1;
40371;PMS5003;28564;53.346;-6.554;2023-04-10T05:12:50;2;2;
40371;PMS5003;28564;53.346;-6.554;2023-04-10T05:15:18;3;3;
40371;PMS5003;28564;53.346;-6.554;2023-04-10T05:17:45;2;1;
40371;PMS5003;28564;53.346;-6.554;2023-04-10T05:20:12;2;2;
40371;PMS5003;28564;53.346;-6.554;2023-04-10T05:22:40;5;3;
40371;PMS5003;28564;53.346;-6.554;2023-04-10T05:25:07;3;2;
40371;PMS5003;28564;53.346;-6.554;2023-04-10T05:27:34;2;2;
40371;PMS5003;28564;53.346;-6.554;2023-04-10T05:30:02;3;1;
40371;PMS5003;28564;53.346;-6.554;2023-04-10T05:32:29;1;1;
40371;PMS5003;28564;53.346;-6.554;2023-04-10T05:34:57;2;1;
40371;PMS5003;28564;53.346;-6.554;2023-04-10T05:37:24;1;1;
40371;PMS5003;28564;53.346;-6.554;2023-04-10T05:39:51;3;3;
40371;PMS5003;28564;53.346;-6.554;2023-04-10T05:42:18;3;3;
40371;PMS5003;28564;53.346;-6.554;2023-04-10T05:44:45;6;2;
40371;PMS5003;28564;53.346;-6.554;2023-04-10T05:47:13;4;2;
40371;PMS5003;28564;53.346;-6.554;2023-04-10T05:49:40;3;3;
40371;PMS5003;28564;53.346;-6.554;2023-04-10T05:52:07;3;2;
40371;PMS5003;28564;53.346;-6.554;2023-04-10T05:54:34;1;1;
40371;PMS5003;28564;53.346;-6.554;2023-04-10T05:57:02;2;2;
40371;PMS5003;28564;53.346;-6.554;2023-04-10T05:59:29;2;2;
40371;PMS5003;28564;53.346;-6.554;2023-04-10T06:01:56;4;1;
40371;PMS5003;28564;53.346;-6.554;2023-04-10T06:04:23;2;2;
40371;PMS5003;28564;53.346;-6.554;2023-04-10T06:06:51;1;1;
40371;PMS5003;28564;53.346;-6.554;2023-04-10T06:09:18;2;1;
40371;PMS5003;28564;53.346;-6.554;2023-04-10T06:11:45;2;2;
40371;PMS5003;28564;53.346;-6.554;2023-04-10T06:14:12;2;1;
40371;PMS5003;28564;53.346;-6.554;2023-04-10T06:16:40;3;1;
40371;PMS5003;28564;53.346;-6.554;2023-04-10T06:19:07;3;2;
40371;PMS5003;28564;53.346;-6.554;2023-04-10T06:21:34;1;1;
40371;PMS5003;28564;53.346;-6.554;2023-04-10T06:24:01;2;2;
40371;PMS5003;28564;53.346;-6.554;2023-04-10T06:26:28;5;2;
40371;PMS5003;28564;53.346;-6.554;2023-04-10T06:28:55;1;1;
40371;PMS5003;28564;53.346;-6.554;2023-04-10T06:31:23;4;2;
40371;PMS5003;28564;53.346;-6.554;2023-04-10T06:33:50;2;1;
40371;PMS5003;28564;53.346;-6.554;2023-04-10T06:36:17;5;4;
40371;PMS5003;28564;53.346;-6.554;2023-04-10T06:38:45;1;1;
40371;PMS5003;28564;53.346;-6.554;2023-04-10T06:41:12;7;5;
40371;PMS5003;28564;53.346;-6.554;2023-04-10T06:43:40;2;1;
40371;PMS5003;28564;53.346;-6.554;2023-04-10T06:46:07;2;1;
40371;PMS5003;28564;53.346;-6.554;2023-04-10T06:48:34;2;1;
40371;PMS5003;28564;53.346;-6.554;2023-04-10T06:51:01;1;1;
40371;PMS5003;28564;53.346;-6.554;2023-04-10T06:53:28;1;1;
40371;PMS5003;28564;53.346;-6.554;2023-04-10T06:55:56;2;1;
40371;PMS5003;28564;53.346;-6.554;2023-04-10T06:58:24;3;2;
40371;PMS5003;28564;53.346;-6.554;2023-04-10T07:00:51;2;2;
40371;PMS5003;28564;53.346;-6.554;2023-04-10T07:03:18;3;1;
40371;PMS5003;28564;53.346;-6.554;2023-04-10T07:05:45;1;1;
40371;PMS5003;28564;53.346;-6.554;2023-04-10T07:08:13;2;2;
40371;PMS5003;28564;53.346;-6.554;2023-04-10T07:10:41;1;1;
40371;PMS5003;28564;53.346;-6.554;2023-04-10T07:13:08;1;1;
40371;PMS5003;28564;53.346;-6.554;2023-04-10T07:15:35;2;2;
40371;PMS5003;28564;53.346;-6.554;2023-04-10T07:18:02;1;0;
40371;PMS5003;28564;53.346;-6.554;2023-04-10T07:20:31;4;1;
40371;PMS5003;28564;53.346;-6.554;2023-04-10T07:22:58;1;0;
40371;PMS5003;28564;53.346;-6.554;2023-04-10T07:25:25;2;1;
40371;PMS5003;28564;53.346;-6.554;2023-04-10T07:27:52;0;0;
40371;PMS5003;28564;53.346;-6.554;2023-04-10T07:30:20;0;0;
40371;PMS5003;28564;53.346;-6.554;2023-04-10T07:32:47;2;0;
40371;PMS5003;28564;53.346;-6.554;2023-04-10T07:35:14;4;0;
40371;PMS5003;28564;53.346;-6.554;2023-04-10T07:37:42;1;1;
40371;PMS5003;28564;53.346;-6.554;2023-04-10T07:40:09;2;2;
40371;PMS5003;28564;53.346;-6.554;2023-04-10T07:42:36;1;1;
40371;PMS5003;28564;53.346;-6.554;2023-04-10T07:45:04;4;1;
40371;PMS5003;28564;53.346;-6.554;2023-04-10T07:47:32;0;0;
40371;PMS5003;28564;53.346;-6.554;2023-04-10T07:49:59;3;1;
40371;PMS5003;28564;53.346;-6.554;2023-04-10T07:52:26;1;1;
40371;PMS5003;28564;53.346;-6.554;2023-04-10T07:54:53;1;1;
40371;PMS5003;28564;53.346;-6.554;2023-04-10T07:57:20;1;1;
40371;PMS5003;28564;53.346;-6.554;2023-04-10T07:59:48;0;0;
40371;PMS5003;28564;53.346;-6.554;2023-04-10T08:02:15;0;0;
40371;PMS5003;28564;53.346;-6.554;2023-04-10T08:04:42;3;1;
40371;PMS5003;28564;53.346;-6.554;2023-04-10T08:07:09;1;0;
40371;PMS5003;28564;53.346;-6.554;2023-04-10T08:09:37;1;1;
40371;PMS5003;28564;53.346;-6.554;2023-04-10T08:12:04;1;1;
40371;PMS5003;28564;53.346;-6.554;2023-04-10T08:14:32;2;0;
40371;PMS5003;28564;53.346;-6.554;2023-04-10T08:16:59;0;0;
40371;PMS5003;28564;53.346;-6.554;2023-04-10T08:19:26;1;1;
40371;PMS5003;28564;53.346;-6.554;2023-04-10T08:21:54;1;1;
40371;PMS5003;28564;53.346;-6.554;2023-04-10T08:24:21;2;1;
40371;PMS5003;28564;53.346;-6.554;2023-04-10T08:26:48;5;4;
40371;PMS5003;28564;53.346;-6.554;2023-04-10T08:29:15;2;1;
40371;PMS5003;28564;53.346;-6.554;2023-04-10T08:31:43;1;1;
40371;PMS5003;28564;53.346;-6.554;2023-04-10T08:34:10;2;2;
40371;PMS5003;28564;53.346;-6.554;2023-04-10T08:36:37;2;1;
40371;PMS5003;28564;53.346;-6.554;2023-04-10T08:39:04;2;0;
40371;PMS5003;28564;53.346;-6.554;2023-04-10T08:41:32;0;0;
40371;PMS5003;28564;53.346;-6.554;2023-04-10T08:43:59;0;0;
40371;PMS5003;28564;53.346;-6.554;2023-04-10T08:46:26;2;1;
40371;PMS5003;28564;53.346;-6.554;2023-04-10T08:48:57;1;1;
40371;PMS5003;28564;53.346;-6.554;2023-04-10T08:51:31;1;1;
40371;PMS5003;28564;53.346;-6.554;2023-04-10T08:54:03;1;0;
40371;PMS5003;28564;53.346;-6.554;2023-04-10T08:56:33;0;0;
40371;PMS5003;28564;53.346;-6.554;2023-04-10T08:59:03;2;1;
40371;PMS5003;28564;53.346;-6.554;2023-04-10T09:01:33;0;0;
40371;PMS5003;28564;53.346;-6.554;2023-04-10T09:04:01;1;1;
40371;PMS5003;28564;53.346;-6.554;2023-04-10T09:06:28;1;0;
40371;PMS5003;28564;53.346;-6.554;2023-04-10T09:08:55;2;1;
40371;PMS5003;28564;53.346;-6.554;2023-04-10T09:11:22;2;1;
40371;PMS5003;28564;53.346;-6.554;2023-04-10T09:13:49;1;1;
40371;PMS5003;28564;53.346;-6.554;2023-04-10T09:16:17;0;0;
40371;PMS5003;28564;53.346;-6.554;2023-04-10T09:18:53;3;3;
40371;PMS5003;28564;53.346;-6.554;2023-04-10T09:21:21;23;23;
40371;PMS5003;28564;53.346;-6.554;2023-04-10T09:23:48;34;33;
40371;PMS5003;28564;53.346;-6.554;2023-04-10T09:26:26;1;1;
40371;PMS5003;28564;53.346;-6.554;2023-04-10T09:28:55;0;0;
40371;PMS5003;28564;53.346;-6.554;2023-04-10T09:31:29;2;1;
40371;PMS5003;28564;53.346;-6.554;2023-04-10T09:34:16;2;0;
40371;PMS5003;28564;53.346;-6.554;2023-04-10T09:36:52;26;24;
40371;PMS5003;28564;53.346;-6.554;2023-04-10T09:39:20;28;28;
40371;PMS5003;28564;53.346;-6.554;2023-04-10T09:41:55;12;11;
40371;PMS5003;28564;53.346;-6.554;2023-04-10T09:44:27;10;10;
40371;PMS5003;28564;53.346;-6.554;2023-04-10T09:46:56;6;6;
40371;PMS5003;28564;53.346;-6.554;2023-04-10T09:49:23;6;6;
40371;PMS5003;28564;53.346;-6.554;2023-04-10T09:51:50;17;17;
40371;PMS5003;28564;53.346;-6.554;2023-04-10T09:54:17;45;43;
40371;PMS5003;28564;53.346;-6.554;2023-04-10T09:57:00;19;17;
40371;PMS5003;28564;53.346;-6.554;2023-04-10T09:59:28;36;36;
40371;PMS5003;28564;53.346;-6.554;2023-04-10T10:01:55;30;26;
40371;PMS5003;28564;53.346;-6.554;2023-04-10T10:04:23;45;43;
40371;PMS5003;28564;53.346;-6.554;2023-04-10T10:06:51;49;49;
40371;PMS5003;28564;53.346;-6.554;2023-04-10T10:09:19;47;47;
40371;PMS5003;28564;53.346;-6.554;2023-04-10T10:11:47;47;44;
40371;PMS5003;28564;53.346;-6.554;2023-04-10T10:14:16;43;43;
40371;PMS5003;28564;53.346;-6.554;2023-04-10T10:16:46;31;31;
40371;PMS5003;28564;53.346;-6.554;2023-04-10T10:19:17;19;19;
40371;PMS5003;28564;53.346;-6.554;2023-04-10T10:21:51;1;1;
40371;PMS5003;28564;53.346;-6.554;2023-04-10T10:24:20;1;1;
40371;PMS5003;28564;53.346;-6.554;2023-04-10T10:26:49;0;0;
40371;PMS5003;28564;53.346;-6.554;2023-04-10T10:29:17;1;1;
40371;PMS5003;28564;53.346;-6.554;2023-04-10T10:31:47;23;23;
40371;PMS5003;28564;53.346;-6.554;2023-04-10T10:34:15;15;14;
40371;PMS5003;28564;53.346;-6.554;2023-04-10T10:36:42;19;19;
40371;PMS5003;28564;53.346;-6.554;2023-04-10T10:39:13;17;16;
40371;PMS5003;28564;53.346;-6.554;2023-04-10T10:41:55;36;36;
40371;PMS5003;28564;53.346;-6.554;2023-04-10T10:44:35;5;5;
40371;PMS5003;28564;53.346;-6.554;2023-04-10T10:47:12;3;2;
40371;PMS5003;28564;53.346;-6.554;2023-04-10T10:49:51;1;1;
40371;PMS5003;28564;53.346;-6.554;2023-04-10T10:52:37;0;0;
40371;PMS5003;28564;53.346;-6.554;2023-04-10T10:55:38;0;0;
40371;PMS5003;28564;53.346;-6.554;2023-04-10T10:58:07;0;0;
40371;PMS5003;28564;53.346;-6.554;2023-04-10T11:01:07;1;1;
40371;PMS5003;28564;53.346;-6.554;2023-04-10T11:03:34;0;0;
40371;PMS5003;28564;53.346;-6.554;2023-04-10T11:06:03;1;0;
40371;PMS5003;28564;53.346;-6.554;2023-04-10T11:08:40;4;2;
40371;PMS5003;28564;53.346;-6.554;2023-04-10T11:11:09;1;1;
40371;PMS5003;28564;53.346;-6.554;2023-04-10T11:13:41;0;0;
40371;PMS5003;28564;53.346;-6.554;2023-04-10T11:16:41;0;0;
40371;PMS5003;28564;53.346;-6.554;2023-04-10T11:19:10;0;0;
40371;PMS5003;28564;53.346;-6.554;2023-04-10T11:21:58;0;0;
40371;PMS5003;28564;53.346;-6.554;2023-04-10T11:24:27;0;0;
40371;PMS5003;28564;53.346;-6.554;2023-04-10T11:26:55;0;0;
40371;PMS5003;28564;53.346;-6.554;2023-04-10T11:29:37;0;0;
40371;PMS5003;28564;53.346;-6.554;2023-04-10T11:32:04;2;0;
40371;PMS5003;28564;53.346;-6.554;2023-04-10T11:34:32;0;0;
40371;PMS5003;28564;53.346;-6.554;2023-04-10T11:36:59;1;1;
40371;PMS5003;28564;53.346;-6.554;2023-04-10T11:39:27;0;0;
40371;PMS5003;28564;53.346;-6.554;2023-04-10T11:41:56;0;0;
40371;PMS5003;28564;53.346;-6.554;2023-04-10T11:44:27;1;1;
40371;PMS5003;28564;53.346;-6.554;2023-04-10T11:46:56;0;0;
40371;PMS5003;28564;53.346;-6.554;2023-04-10T11:49:24;0;0;
40371;PMS5003;28564;53.346;-6.554;2023-04-10T11:51:52;1;1;
40371;PMS5003;28564;53.346;-6.554;2023-04-10T11:54:21;0;0;
40371;PMS5003;28564;53.346;-6.554;2023-04-10T11:56:58;2;0;
40371;PMS5003;28564;53.346;-6.554;2023-04-10T11:59:27;0;0;
40371;PMS5003;28564;53.346;-6.554;2023-04-10T12:02:05;1;1;
40371;PMS5003;28564;53.346;-6.554;2023-04-10T12:04:34;0;0;
40371;PMS5003;28564;53.346;-6.554;2023-04-10T12:07:02;0;0;
40371;PMS5003;28564;53.346;-6.554;2023-04-10T12:09:29;0;0;
40371;PMS5003;28564;53.346;-6.554;2023-04-10T12:11:57;0;0;
40371;PMS5003;28564;53.346;-6.554;2023-04-10T12:14:28;0;0;
40371;PMS5003;28564;53.346;-6.554;2023-04-10T12:16:57;0;0;
40371;PMS5003;28564;53.346;-6.554;2023-04-10T12:19:25;1;1;
40371;PMS5003;28564;53.346;-6.554;2023-04-10T12:21:53;1;1;
40371;PMS5003;28564;53.346;-6.554;2023-04-10T12:24:53;1;1;
40371;PMS5003;28564;53.346;-6.554;2023-04-10T12:27:20;1;1;
40371;PMS5003;28564;53.346;-6.554;2023-04-10T12:29:50;9;9;
40371;PMS5003;28564;53.346;-6.554;2023-04-10T12:32:18;0;0;
40371;PMS5003;28564;53.346;-6.554;2023-04-10T12:34:48;0;0;
40371;PMS5003;28564;53.346;-6.554;2023-04-10T12:37:17;0;0;
40371;PMS5003;28564;53.346;-6.554;2023-04-10T12:39:44;1;1;
40371;PMS5003;28564;53.346;-6.554;2023-04-10T12:42:11;0;0;
40371;PMS5003;28564;53.346;-6.554;2023-04-10T12:44:56;0;0;
40371;PMS5003;28564;53.346;-6.554;2023-04-10T12:47:27;1;0;
40371;PMS5003;28564;53.346;-6.554;2023-04-10T12:50:03;0;0;
40371;PMS5003;28564;53.346;-6.554;2023-04-10T12:52:32;0;0;
40371;PMS5003;28564;53.346;-6.554;2023-04-10T12:55:16;1;1;
40371;PMS5003;28564;53.346;-6.554;2023-04-10T12:57:44;0;0;
40371;PMS5003;28564;53.346;-6.554;2023-04-10T13:00:14;1;1;
40371;PMS5003;28564;53.346;-6.554;2023-04-10T13:02:42;0;0;
40371;PMS5003;28564;53.346;-6.554;2023-04-10T13:05:10;0;0;
40371;PMS5003;28564;53.346;-6.554;2023-04-10T13:07:38;1;0;
40371;PMS5003;28564;53.346;-6.554;2023-04-10T13:10:06;1;1;
40371;PMS5003;28564;53.346;-6.554;2023-04-10T13:12:34;0;0;
40371;PMS5003;28564;53.346;-6.554;2023-04-10T13:15:01;1;1;
40371;PMS5003;28564;53.346;-6.554;2023-04-10T13:17:29;0;0;
40371;PMS5003;28564;53.346;-6.554;2023-04-10T13:19:56;0;0;
40371;PMS5003;28564;53.346;-6.554;2023-04-10T13:22:23;0;0;
40371;PMS5003;28564;53.346;-6.554;2023-04-10T13:24:50;0;0;
40371;PMS5003;28564;53.346;-6.554;2023-04-10T13:27:17;0;0;
40371;PMS5003;28564;53.346;-6.554;2023-04-10T13:29:44;1;0;
40371;PMS5003;28564;53.346;-6.554;2023-04-10T13:32:11;0;0;
40371;PMS5003;28564;53.346;-6.554;2023-04-10T13:34:38;0;0;
40371;PMS5003;28564;53.346;-6.554;2023-04-10T13:37:05;0;0;
40371;PMS5003;28564;53.346;-6.554;2023-04-10T13:39:32;0;0;
40371;PMS5003;28564;53.346;-6.554;2023-04-10T13:41:59;0;0;
40371;PMS5003;28564;53.346;-6.554;2023-04-10T13:44:26;0;0;
40371;PMS5003;28564;53.346;-6.554;2023-04-10T13:46:53;0;0;
40371;PMS5003;28564;53.346;-6.554;2023-04-10T13:49:20;0;0;
40371;PMS5003;28564;53.346;-6.554;2023-04-10T13:51:47;0;0;
40371;PMS5003;28564;53.346;-6.554;2023-04-10T13:54:15;0;0;
40371;PMS5003;28564;53.346;-6.554;2023-04-10T13:56:42;1;0;
40371;PMS5003;28564;53.346;-6.554;2023-04-10T13:59:10;0;0;
40371;PMS5003;28564;53.346;-6.554;2023-04-10T14:01:37;1;1;
40371;PMS5003;28564;53.346;-6.554;2023-04-10T14:04:04;0;0;
40371;PMS5003;28564;53.346;-6.554;2023-04-10T14:06:32;0;0;
40371;PMS5003;28564;53.346;-6.554;2023-04-10T14:08:59;0;0;
40371;PMS5003;28564;53.346;-6.554;2023-04-10T14:11:26;1;1;
40371;PMS5003;28564;53.346;-6.554;2023-04-10T14:13:54;2;2;
40371;PMS5003;28564;53.346;-6.554;2023-04-10T14:16:21;0;0;
40371;PMS5003;28564;53.346;-6.554;2023-04-10T14:18:48;0;0;
40371;PMS5003;28564;53.346;-6.554;2023-04-10T14:21:15;0;0;
40371;PMS5003;28564;53.346;-6.554;2023-04-10T14:23:42;0;0;
40371;PMS5003;28564;53.346;-6.554;2023-04-10T14:26:09;0;0;
40371;PMS5003;28564;53.346;-6.554;2023-04-10T14:28:36;0;0;
40371;PMS5003;28564;53.346;-6.554;2023-04-10T14:31:03;0;0;
40371;PMS5003;28564;53.346;-6.554;2023-04-10T14:33:31;0;0;
40371;PMS5003;28564;53.346;-6.554;2023-04-10T14:35:59;0;0;
40371;PMS5003;28564;53.346;-6.554;2023-04-10T14:38:25;0;0;
40371;PMS5003;28564;53.346;-6.554;2023-04-10T14:40:52;2;0;
40371;PMS5003;28564;53.346;-6.554;2023-04-10T14:43:19;1;0;
40371;PMS5003;28564;53.346;-6.554;2023-04-10T14:45:46;0;0;
40371;PMS5003;28564;53.346;-6.554;2023-04-10T14:48:13;0;0;
40371;PMS5003;28564;53.346;-6.554;2023-04-10T14:50:41;1;1;
40371;PMS5003;28564;53.346;-6.554;2023-04-10T14:53:09;1;1;
40371;PMS5003;28564;53.346;-6.554;2023-04-10T14:55:36;1;0;
40371;PMS5003;28564;53.346;-6.554;2023-04-10T14:58:04;0;0;
40371;PMS5003;28564;53.346;-6.554;2023-04-10T15:00:31;0;0;
40371;PMS5003;28564;53.346;-6.554;2023-04-10T15:02:58;0;0;
40371;PMS5003;28564;53.346;-6.554;2023-04-10T15:05:26;0;0;
40371;PMS5003;28564;53.346;-6.554;2023-04-10T15:07:54;2;0;
40371;PMS5003;28564;53.346;-6.554;2023-04-10T15:10:21;0;0;
40371;PMS5003;28564;53.346;-6.554;2023-04-10T15:12:49;0;0;
40371;PMS5003;28564;53.346;-6.554;2023-04-10T15:15:16;3;0;
40371;PMS5003;28564;53.346;-6.554;2023-04-10T15:17:43;0;0;
40371;PMS5003;28564;53.346;-6.554;2023-04-10T15:20:11;0;0;
40371;PMS5003;28564;53.346;-6.554;2023-04-10T15:22:38;2;0;
40371;PMS5003;28564;53.346;-6.554;2023-04-10T15:25:05;1;0;
40371;PMS5003;28564;53.346;-6.554;2023-04-10T15:27:33;0;0;
40371;PMS5003;28564;53.346;-6.554;2023-04-10T15:30:00;1;1;
40371;PMS5003;28564;53.346;-6.554;2023-04-10T15:32:27;1;1;
40371;PMS5003;28564;53.346;-6.554;2023-04-10T15:34:55;0;0;
40371;PMS5003;28564;53.346;-6.554;2023-04-10T15:37:22;2;0;
40371;PMS5003;28564;53.346;-6.554;2023-04-10T15:39:49;0;0;
40371;PMS5003;28564;53.346;-6.554;2023-04-10T15:42:17;2;0;
40371;PMS5003;28564;53.346;-6.554;2023-04-10T15:44:44;0;0;
40371;PMS5003;28564;53.346;-6.554;2023-04-10T15:47:11;1;1;
40371;PMS5003;28564;53.346;-6.554;2023-04-10T15:49:38;0;0;
40371;PMS5003;28564;53.346;-6.554;2023-04-10T15:52:05;0;0;
40371;PMS5003;28564;53.346;-6.554;2023-04-10T15:54:33;1;1;
40371;PMS5003;28564;53.346;-6.554;2023-04-10T15:57:02;10;10;
40371;PMS5003;28564;53.346;-6.554;2023-04-10T15:59:30;0;0;
40371;PMS5003;28564;53.346;-6.554;2023-04-10T16:01:58;1;0;
40371;PMS5003;28564;53.346;-6.554;2023-04-10T16:04:26;0;0;
40371;PMS5003;28564;53.346;-6.554;2023-04-10T16:06:52;0;0;
40371;PMS5003;28564;53.346;-6.554;2023-04-10T16:09:20;0;0;
40371;PMS5003;28564;53.346;-6.554;2023-04-10T16:11:48;0;0;
40371;PMS5003;28564;53.346;-6.554;2023-04-10T16:14:15;0;0;
40371;PMS5003;28564;53.346;-6.554;2023-04-10T16:16:42;1;0;
40371;PMS5003;28564;53.346;-6.554;2023-04-10T16:19:09;1;0;
40371;PMS5003;28564;53.346;-6.554;2023-04-10T16:21:36;0;0;
40371;PMS5003;28564;53.346;-6.554;2023-04-10T16:24:03;0;0;
40371;PMS5003;28564;53.346;-6.554;2023-04-10T16:26:32;3;3;
40371;PMS5003;28564;53.346;-6.554;2023-04-10T16:28:59;1;1;
40371;PMS5003;28564;53.346;-6.554;2023-04-10T16:31:27;0;0;
40371;PMS5003;28564;53.346;-6.554;2023-04-10T16:33:54;2;1;
40371;PMS5003;28564;53.346;-6.554;2023-04-10T16:36:21;1;1;
40371;PMS5003;28564;53.346;-6.554;2023-04-10T16:38:48;0;0;
40371;PMS5003;28564;53.346;-6.554;2023-04-10T16:41:15;0;0;